Time;durP1;ratioP1;P1;durP2;ratioP2;P2;SDS_P1;SDS_P2;PMS_P1;PMS_P2;Temp;Humidity;BMP_temperature;BMP_pressure;BME280_temperature;BME280_humidity;BME280_pressure;Samples;Min_cycle;Max_cycle;Signal;HPM_P1;HPM_P2
2022/01/27 00:03:19;;;;;;;;;;;;;;;22.07;28.59;101418.56;4970434;28;976;-75
2022/01/27 00:05:50;;;;;;;;;;;;;;;21.09;29.82;101403.38;4970515;28;916;-75
2022/01/27 00:08:20;;;;;;;;;;;;;;;21.54;29.50;101399.91;4971842;28;1334;-76
2022/01/27 00:10:54;;;;;;;;;;;;;;;21.21;29.85;101394.50;4971900;28;1004;-76
2022/01/27 00:13:25;;;;;;;;;;;;;;;21.46;29.82;101388.88;4971312;28;1555;-75
2022/01/27 00:15:59;;;;;;;;;;;;;;;21.13;30.14;101390.94;4971051;28;1910;-75
2022/01/27 00:18:26;;;;;;;;;;;;;;;19.86;32.48;101380.38;4971434;28;1349;-75
2022/01/27 00:20:52;;;;;;;;;;;;;;;20.72;31.06;101378.09;4970458;28;996;-75
2022/01/27 00:23:18;;;;;;;;;;;;;;;21.86;29.44;101383.31;4971680;28;971;-75
2022/01/27 00:25:45;;;;;;;;;;;;;;;22.64;28.33;101370.22;4953987;28;1121;-75
2022/01/27 00:28:12;;;;;;;;;;;;;;;20.67;30.89;101372.22;4970303;28;1422;-75
2022/01/27 00:30:39;;;;;;;;;;;;;;;21.83;29.72;101367.97;4954500;28;1335;-75
2022/01/27 00:33:07;;;;;;;;;;;;;;;21.69;29.67;101360.47;4973349;28;767;-75
2022/01/27 00:35:34;;;;;;;;;;;;;;;20.90;30.84;101361.34;4975032;28;1974;-75
2022/01/27 00:38:01;;;;;;;;;;;;;;;20.83;30.62;101360.31;4975637;28;746;-76
2022/01/27 00:40:27;;;;;;;;;;;;;;;21.90;29.62;101349.59;4976023;28;1323;-76
2022/01/27 00:42:53;;;;;;;;;;;;;;;22.06;29.24;101343.09;4958219;28;1227;-75
2022/01/27 00:45:23;;;;;;;;;;;;;;;22.18;28.91;101339.88;4974912;28;900;-75
2022/01/27 00:47:49;;;;;;;;;;;;;;;20.63;30.63;101346.03;4975573;28;932;-76
2022/01/27 00:50:17;;;;;;;;;;;;;;;20.82;30.91;101340.16;4975216;28;1336;-75
2022/01/27 00:52:48;;;;;;;;;;;;;;;21.31;30.33;101340.97;4974962;28;860;-76
2022/01/27 00:55:15;;;;;;;;;;;;;;;21.72;29.96;101326.94;4974840;28;1915;-75
2022/01/27 00:57:59;;;;;;;;;;;;;;;21.15;30.50;101322.59;4975301;28;750;-78
2022/01/27 01:00:31;;;;;;;;;;;;;;;20.77;30.35;101314.16;4974881;28;1329;-76
2022/01/27 01:03:03;;;;;;;;;;;;;;;21.06;30.52;101314.38;4975356;28;959;-76
2022/01/27 01:05:45;;;;;;;;;;;;;;;21.30;29.79;101300.59;4974869;28;798;-76
2022/01/27 01:08:20;;;;;;;;;;;;;;;21.70;29.80;101294.00;4973767;28;1319;-75
2022/01/27 01:16:19;;;;;;;;;;;;;;;20.07;32.10;101289.78;4953773;29;1903;-75
2022/01/27 01:18:53;;;;;;;;;;;;;;;20.21;31.89;101292.88;4954139;29;1366;-74
2022/01/27 01:21:36;;;;;;;;;;;;;;;21.31;30.46;101294.91;4960569;28;1417;-76
2022/01/27 01:29:52;;;;;;;;;;;;;;;21.68;29.71;101286.94;4974444;28;1310;-78
2022/01/27 01:32:35;;;;;;;;;;;;;;;21.52;29.60;101276.81;4973312;28;1050;-76
2022/01/27 01:35:05;;;;;;;;;;;;;;;21.32;30.41;101285.56;4974093;28;1986;-75
2022/01/27 01:37:37;;;;;;;;;;;;;;;20.49;31.61;101281.44;4974469;28;984;-75
2022/01/27 01:40:03;;;;;;;;;;;;;;;22.05;29.44;101269.50;4974430;28;1329;-77
2022/01/27 01:42:31;;;;;;;;;;;;;;;21.47;30.33;101259.94;4973159;28;1249;-76
2022/01/27 01:45:00;;;;;;;;;;;;;;;20.97;30.26;101256.66;4972969;28;980;-76
2022/01/27 01:47:28;;;;;;;;;;;;;;;20.30;32.13;101261.50;4988883;28;1087;-76
2022/01/27 01:49:54;;;;;;;;;;;;;;;20.35;31.82;101252.69;4974000;28;1305;-76
2022/01/27 01:52:21;;;;;;;;;;;;;;;21.43;29.97;101245.63;4974232;28;999;-76
2022/01/27 01:54:47;;;;;;;;;;;;;;;21.66;30.25;101244.81;4973955;28;956;-76
2022/01/27 01:57:14;;;;;;;;;;;;;;;19.50;32.77;101237.44;4973990;28;2056;-79
2022/01/27 01:59:40;;;;;;;;;;;;;;;21.20;30.97;101218.03;4972741;28;1309;-77
2022/01/27 02:02:08;;;;;;;;;;;;;;;22.36;29.20;101204.06;4973563;28;1461;-76
2022/01/27 02:04:36;;;;;;;;;;;;;;;21.37;30.59;101204.97;4973328;28;1019;-78
2022/01/27 02:07:04;;;;;;;;;;;;;;;21.98;29.40;101206.88;4988929;28;861;-76
2022/01/27 02:09:48;;;;;;;;;;;;;;;21.04;30.93;101196.91;4956730;28;1329;-77
2022/01/27 02:18:00;;;;;;;;;;;;;;;21.09;30.54;101175.16;4973927;28;975;-75
2022/01/27 02:20:28;;;;;;;;;;;;;;;19.83;31.71;101177.75;4972510;28;1465;-76
2022/01/27 02:22:54;;;;;;;;;;;;;;;21.82;29.91;101167.31;4973913;28;762;-76
2022/01/27 02:25:20;;;;;;;;;;;;;;;20.19;32.17;101166.28;4974147;28;991;-76
2022/01/27 02:27:47;;;;;;;;;;;;;;;21.35;30.27;101154.59;4972846;28;986;-75
2022/01/27 02:30:13;;;;;;;;;;;;;;;20.74;31.30;101164.50;4973509;28;1493;-76
2022/01/27 02:32:39;;;;;;;;;;;;;;;21.01;31.24;101161.41;4956213;28;1134;-76
2022/01/27 02:35:06;;;;;;;;;;;;;;;20.60;31.85;101167.16;4971651;28;900;-76
2022/01/27 02:37:34;;;;;;;;;;;;;;;19.22;33.55;101152.44;4971860;28;1938;-75
2022/01/27 02:40:00;;;;;;;;;;;;;;;19.81;32.75;101177.03;4973142;28;1446;-76
2022/01/27 02:42:30;;;;;;;;;;;;;;;21.43;30.59;101160.03;4973336;28;834;-77
2022/01/27 02:45:01;;;;;;;;;;;;;;;21.62;30.14;101155.94;4972812;28;880;-76
2022/01/27 02:47:27;;;;;;;;;;;;;;;20.52;32.19;101162.53;4973114;28;1161;-75
2022/01/27 02:49:53;;;;;;;;;;;;;;;20.29;32.47;101159.69;4972791;28;1329;-75
2022/01/27 02:52:20;;;;;;;;;;;;;;;19.91;32.73;101165.84;4971559;28;1142;-75
2022/01/27 02:54:47;;;;;;;;;;;;;;;20.58;31.63;101145.28;4972422;28;999;-77
2022/01/27 02:57:13;;;;;;;;;;;;;;;21.41;30.37;101137.28;4972618;28;1923;-75
2022/01/27 02:59:40;;;;;;;;;;;;;;;20.83;31.25;101129.47;4987857;28;1322;-75
2022/01/27 03:02:06;;;;;;;;;;;;;;;21.94;29.69;101125.38;4972842;28;900;-75
2022/01/27 03:04:34;;;;;;;;;;;;;;;21.52;30.38;101111.97;4971566;28;1028;-75
2022/01/27 03:07:00;;;;;;;;;;;;;;;21.69;29.65;101107.19;4971619;28;983;-75
2022/01/27 03:09:27;;;;;;;;;;;;;;;21.63;30.39;101112.59;4972745;28;1331;-75
2022/01/27 03:11:59;;;;;;;;;;;;;;;21.33;30.44;101112.53;4972685;28;936;-76
2022/01/27 03:14:26;;;;;;;;;;;;;;;21.81;30.33;101109.50;4971045;28;912;-74
2022/01/27 03:16:54;;;;;;;;;;;;;;;22.37;29.53;101096.03;4955177;28;1900;-76
2022/01/27 03:19:21;;;;;;;;;;;;;;;21.55;30.03;101091.44;4972254;28;1372;-76
2022/01/27 03:21:47;;;;;;;;;;;;;;;20.76;31.03;101089.84;4972606;28;905;-75
2022/01/27 03:24:14;;;;;;;;;;;;;;;20.57;31.63;101080.13;4972102;28;1042;-75
2022/01/27 03:26:41;;;;;;;;;;;;;;;20.65;31.65;101087.50;4972353;28;1134;-75
2022/01/27 03:29:09;;;;;;;;;;;;;;;21.42;30.61;101081.03;4972348;28;1418;-75
2022/01/27 03:31:35;;;;;;;;;;;;;;;21.88;29.75;101072.59;4972205;28;1003;-75
2022/01/27 03:34:02;;;;;;;;;;;;;;;21.90;30.19;101061.38;4972300;28;1074;-74
2022/01/27 03:36:28;;;;;;;;;;;;;;;21.61;30.37;101059.47;4972097;28;1911;-75
2022/01/27 03:38:54;;;;;;;;;;;;;;;20.14;31.55;101055.72;4972445;28;1322;-75
2022/01/27 03:41:22;;;;;;;;;;;;;;;21.32;30.32;101058.34;4971219;28;991;-74
2022/01/27 03:43:50;;;;;;;;;;;;;;;22.26;29.35;101060.56;4972565;28;920;-75
2022/01/27 03:46:18;;;;;;;;;;;;;;;21.79;30.08;101048.03;4970894;28;971;-76
2022/01/27 03:48:44;;;;;;;;;;;;;;;21.70;30.00;101047.25;4972157;28;1311;-75
2022/01/27 03:51:11;;;;;;;;;;;;;;;20.39;32.15;101044.53;4971717;28;971;-75
2022/01/27 03:53:37;;;;;;;;;;;;;;;21.71;30.29;101043.44;4969938;28;794;-76
2022/01/27 03:56:03;;;;;;;;;;;;;;;20.46;32.36;101050.22;4972200;28;1919;-76
2022/01/27 03:58:30;;;;;;;;;;;;;;;20.85;31.88;101055.63;4972282;28;1389;-75
2022/01/27 04:00:56;;;;;;;;;;;;;;;21.20;31.18;101053.25;4972331;28;1001;-76
2022/01/27 04:03:24;;;;;;;;;;;;;;;20.79;31.92;101050.00;4972157;28;991;-75
2022/01/27 04:05:53;;;;;;;;;;;;;;;20.96;31.73;101045.22;4963342;28;1988;-75
2022/01/27 04:08:20;;;;;;;;;;;;;;;21.32;31.16;101036.25;4971262;28;1486;-75
2022/01/27 04:10:46;;;;;;;;;;;;;;;21.41;30.63;101022.16;4986433;28;1167;-77
2022/01/27 04:13:13;;;;;;;;;;;;;;;21.46;30.50;101023.50;4972220;28;1012;-75
2022/01/27 04:15:42;;;;;;;;;;;;;;;20.95;31.93;101026.94;4971714;28;1051;-75
2022/01/27 04:18:09;;;;;;;;;;;;;;;20.81;31.47;101012.91;4971883;28;2133;-75
2022/01/27 04:20:36;;;;;;;;;;;;;;;21.41;31.36;101026.84;4972146;28;876;-75
2022/01/27 04:23:03;;;;;;;;;;;;;;;22.49;29.53;101018.94;4972118;28;1035;-76
2022/01/27 04:25:29;;;;;;;;;;;;;;;21.59;30.91;101004.41;4971253;28;1162;-76
2022/01/27 04:28:00;;;;;;;;;;;;;;;20.71;32.12;101009.53;4971612;28;980;-75
2022/01/27 04:30:27;;;;;;;;;;;;;;;21.21;31.36;101005.31;4970107;28;1373;-75
2022/01/27 04:32:56;;;;;;;;;;;;;;;20.84;31.79;101001.50;4971417;28;707;-76
2022/01/27 04:35:26;;;;;;;;;;;;;;;20.87;32.10;101003.03;4969992;28;1213;-75
2022/01/27 04:38:01;;;;;;;;;;;;;;;21.12;31.82;101006.44;4971356;28;1914;-75
2022/01/27 04:40:33;;;;;;;;;;;;;;;21.39;31.33;100990.28;4971356;28;1315;-77
2022/01/27 04:43:06;;;;;;;;;;;;;;;20.32;32.32;100971.91;4970418;28;832;-76
2022/01/27 04:45:41;;;;;;;;;;;;;;;21.12;32.06;100977.97;4971380;28;817;-76
2022/01/27 04:48:12;;;;;;;;;;;;;;;21.64;31.01;100976.22;4969993;28;847;-76
2022/01/27 04:50:39;;;;;;;;;;;;;;;21.28;31.27;100974.19;4971310;28;1074;-75
2022/01/27 04:53:11;;;;;;;;;;;;;;;21.45;31.07;100967.44;4971324;28;1071;-75
2022/01/27 04:55:38;;;;;;;;;;;;;;;19.99;33.54;100967.47;4971075;28;1142;-75
2022/01/27 04:58:10;;;;;;;;;;;;;;;21.03;31.85;100946.84;4970269;28;1985;-76
2022/01/27 05:00:36;;;;;;;;;;;;;;;20.68;32.22;100954.72;4971347;28;857;-75
2022/01/27 05:03:11;;;;;;;;;;;;;;;20.63;32.56;100933.25;4971269;28;850;-74
2022/01/27 05:05:39;;;;;;;;;;;;;;;19.88;33.20;100946.69;4970729;28;962;-76
2022/01/27 05:08:10;;;;;;;;;;;;;;;21.08;31.03;100927.81;4971449;28;959;-75
2022/01/27 05:10:36;;;;;;;;;;;;;;;20.63;31.33;100926.84;4971247;28;960;-76
2022/01/27 05:13:11;;;;;;;;;;;;;;;21.54;30.61;100916.63;4970298;28;1047;-76
2022/01/27 05:15:45;;;;;;;;;;;;;;;20.64;31.94;100914.78;4969933;28;1070;-75
2022/01/27 05:18:11;;;;;;;;;;;;;;;21.53;30.34;100914.03;4971021;28;1986;-74
2022/01/27 05:20:38;;;;;;;;;;;;;;;21.07;30.94;100909.53;4958434;28;1270;-76
2022/01/27 05:23:04;;;;;;;;;;;;;;;21.26;30.34;100912.78;4973549;28;843;-76
2022/01/27 05:25:31;;;;;;;;;;;;;;;21.29;30.18;100899.47;4972945;28;999;-76
2022/01/27 05:27:58;;;;;;;;;;;;;;;20.28;32.25;100887.88;4973457;28;1641;-76
2022/01/27 05:30:24;;;;;;;;;;;;;;;21.03;30.82;100886.13;4973351;28;1311;-76
2022/01/27 05:32:51;;;;;;;;;;;;;;;20.34;31.86;100882.47;4974615;28;1050;-75
2022/01/27 05:35:18;;;;;;;;;;;;;;;20.19;32.39;100881.56;4974279;28;1019;-76
2022/01/27 05:37:44;;;;;;;;;;;;;;;21.41;30.37;100877.75;4973098;28;1974;-76
2022/01/27 05:40:11;;;;;;;;;;;;;;;20.70;31.03;100883.75;4974574;28;1408;-76
2022/01/27 05:42:39;;;;;;;;;;;;;;;21.11;31.02;100876.91;4974424;28;774;-75
2022/01/27 05:45:06;;;;;;;;;;;;;;;20.25;31.75;100883.59;4973932;28;904;-76
2022/01/27 05:47:32;;;;;;;;;;;;;;;19.87;32.07;100880.78;4973151;28;1006;-74
2022/01/27 05:49:58;;;;;;;;;;;;;;;20.86;31.13;100888.25;4974302;28;1312;-75
2022/01/27 05:52:25;;;;;;;;;;;;;;;19.66;32.94;100873.13;4974117;28;1046;-76
2022/01/27 05:54:51;;;;;;;;;;;;;;;19.79;32.72;100844.97;4974025;28;901;-75
2022/01/27 05:57:17;;;;;;;;;;;;;;;20.93;31.54;100842.28;4972916;28;1910;-75
2022/01/27 05:59:45;;;;;;;;;;;;;;;20.77;31.33;100842.47;4974074;28;1318;-75
2022/01/27 06:02:11;;;;;;;;;;;;;;;20.33;32.17;100833.91;4972718;28;1137;-75
2022/01/27 06:04:37;;;;;;;;;;;;;;;21.85;30.11;100846.44;4973960;28;995;-75
2022/01/27 06:07:04;;;;;;;;;;;;;;;21.33;30.62;100842.81;4974253;28;809;-74
2022/01/27 06:09:30;;;;;;;;;;;;;;;20.21;32.36;100854.69;4973806;28;1477;-76
2022/01/27 06:11:56;;;;;;;;;;;;;;;19.70;33.06;100842.28;4973034;28;1004;-75
2022/01/27 06:14:23;;;;;;;;;;;;;;;19.36;33.39;100854.53;4973262;28;762;-77
2022/01/27 06:16:50;;;;;;;;;;;;;;;20.03;32.48;100832.94;4976461;28;1914;-76
2022/01/27 06:19:17;;;;;;;;;;;;;;;20.50;31.78;100851.16;4973278;28;1443;-75
2022/01/27 06:21:44;;;;;;;;;;;;;;;20.74;31.47;100849.22;4973768;28;940;-74
2022/01/27 06:24:11;;;;;;;;;;;;;;;20.99;31.39;100837.91;4973251;28;1495;-74
2022/01/27 06:26:37;;;;;;;;;;;;;;;21.01;30.45;100827.53;4981285;28;1576;-75
2022/01/27 06:29:03;;;;;;;;;;;;;;;20.70;31.66;100828.59;4991130;28;1562;-74
2022/01/27 06:31:30;;;;;;;;;;;;;;;21.41;30.22;100814.25;4986802;28;1563;-75
2022/01/27 06:33:57;;;;;;;;;;;;;;;21.62;30.11;100815.34;4955946;28;1489;-77
2022/01/27 06:36:23;;;;;;;;;;;;;;;19.74;32.62;100823.50;4974114;28;1638;-76
2022/01/27 06:38:50;;;;;;;;;;;;;;;20.58;31.98;100812.47;4973523;28;1975;-75
2022/01/27 06:41:16;;;;;;;;;;;;;;;19.68;33.10;100826.97;4973756;28;1519;-75
2022/01/27 06:43:42;;;;;;;;;;;;;;;20.20;32.14;100819.91;4985008;28;1189;-74
2022/01/27 06:46:09;;;;;;;;;;;;;;;21.32;30.77;100830.06;4962141;28;1339;-73
2022/01/27 06:48:36;;;;;;;;;;;;;;;20.36;31.67;100819.75;4966605;28;1471;-74
2022/01/27 06:51:05;;;;;;;;;;;;;;;20.46;31.94;100836.03;4951988;28;1495;-75
2022/01/27 06:53:31;;;;;;;;;;;;;;;20.25;32.34;100833.97;4971793;28;845;-76
2022/01/27 06:55:58;;;;;;;;;;;;;;;20.75;31.14;100839.88;4973653;28;1525;-77
2022/01/27 06:58:24;;;;;;;;;;;;;;;20.95;30.86;100834.69;4977465;28;1910;-74
2022/01/27 07:00:51;;;;;;;;;;;;;;;20.28;31.95;100824.47;4992247;28;2098;-75
2022/01/27 07:03:17;;;;;;;;;;;;;;;21.65;30.24;100824.13;4973171;28;799;-76
2022/01/27 07:05:43;;;;;;;;;;;;;;;20.04;32.07;100829.16;4980959;28;1400;-74
2022/01/27 07:08:11;;;;;;;;;;;;;;;20.05;31.67;100834.47;4976422;28;1189;-75
2022/01/27 07:10:37;;;;;;;;;;;;;;;21.00;30.75;100836.88;4973651;28;1260;-74
2022/01/27 07:13:04;;;;;;;;;;;;;;;20.15;31.54;100825.97;4973322;28;1046;-75
2022/01/27 07:15:30;;;;;;;;;;;;;;;20.41;31.05;100813.69;4967347;28;1345;-75
2022/01/27 07:17:57;;;;;;;;;;;;;;;21.52;30.25;100813.72;4972591;28;1915;-74
2022/01/27 07:20:23;;;;;;;;;;;;;;;20.60;31.06;100819.69;4973235;28;1455;-74
2022/01/27 07:22:49;;;;;;;;;;;;;;;21.15;30.55;100817.53;4972445;28;999;-74
2022/01/27 07:25:17;;;;;;;;;;;;;;;20.50;31.32;100808.94;4975759;28;1209;-77
2022/01/27 07:27:44;;;;;;;;;;;;;;;21.15;30.13;100806.50;4991930;28;804;-75
2022/01/27 07:30:10;;;;;;;;;;;;;;;20.79;30.62;100799.88;4990360;28;1503;-76
2022/01/27 07:32:37;;;;;;;;;;;;;;;20.50;31.67;100804.28;4973674;28;1555;-75
2022/01/27 07:35:04;;;;;;;;;;;;;;;20.28;31.38;100792.25;4972333;28;1542;-75
2022/01/27 07:37:31;;;;;;;;;;;;;;;18.99;33.62;100784.53;4966387;28;1914;-76
2022/01/27 07:39:57;;;;;;;;;;;;;;;20.69;32.00;100788.25;4972163;28;1306;-76
2022/01/27 07:42:24;;;;;;;;;;;;;;;21.66;29.57;100783.53;4985164;28;1510;-76
2022/01/27 07:44:51;;;;;;;;;;;;;;;21.36;30.10;100783.59;4971696;28;912;-76
2022/01/27 07:47:17;;;;;;;;;;;;;;;18.63;33.87;100784.97;4972181;28;1570;-76
2022/01/27 07:49:43;;;;;;;;;;;;;;;20.38;31.60;100781.81;4971880;28;1371;-75
2022/01/27 07:52:10;;;;;;;;;;;;;;;20.77;31.18;100776.28;4987437;28;1499;-76
2022/01/27 07:54:36;;;;;;;;;;;;;;;21.19;30.29;100767.28;4967557;28;1293;-77
2022/01/27 07:57:03;;;;;;;;;;;;;;;21.42;30.17;100777.31;4985456;28;1911;-77
2022/01/27 07:59:30;;;;;;;;;;;;;;;20.86;30.70;100772.38;4978139;28;1511;-76
2022/01/27 08:01:56;;;;;;;;;;;;;;;22.03;29.15;100770.50;4975094;28;1341;-78
2022/01/27 08:04:24;;;;;;;;;;;;;;;20.10;31.48;100769.72;4972771;28;1512;-76
2022/01/27 08:06:50;;;;;;;;;;;;;;;19.51;32.66;100760.19;4971704;28;1515;-75
2022/01/27 08:09:17;;;;;;;;;;;;;;;20.86;30.93;100756.69;4970574;28;1500;-76
2022/01/27 08:11:43;;;;;;;;;;;;;;;19.43;31.85;100736.31;4974180;28;1317;-77
2022/01/27 08:14:10;;;;;;;;;;;;;;;20.32;31.52;100748.66;4971449;28;1507;-75
2022/01/27 08:16:37;;;;;;;;;;;;;;;20.04;32.14;100744.63;4989308;28;1230;-77
2022/01/27 08:19:03;;;;;;;;;;;;;;;21.48;30.16;100732.34;4982741;28;1918;-77
2022/01/27 08:21:30;;;;;;;;;;;;;;;20.12;31.49;100721.63;4954623;28;1289;-77
2022/01/27 08:23:57;;;;;;;;;;;;;;;19.04;32.30;100734.47;4970629;28;1035;-78
2022/01/27 08:26:33;;;;;;;;;;;;;;;21.03;30.54;100726.09;4971995;28;1646;-76
2022/01/27 08:29:09;;;;;;;;;;;;;;;20.24;31.54;100727.53;4971950;28;1689;-77
2022/01/27 08:31:43;;;;;;;;;;;;;;;21.03;30.51;100724.22;4957962;28;1592;-72
2022/01/27 08:34:16;;;;;;;;;;;;;;;19.40;32.48;100715.50;4971507;28;1260;-73
2022/01/27 08:36:43;;;;;;;;;;;;;;;20.28;31.61;100717.84;4975552;28;1503;-78
2022/01/27 08:39:10;;;;;;;;;;;;;;;20.09;31.72;100711.00;4980294;28;2265;-78
2022/01/27 08:41:36;;;;;;;;;;;;;;;19.03;33.21;100706.13;4981632;28;1496;-77
2022/01/27 08:44:03;;;;;;;;;;;;;;;20.64;31.44;100711.56;4971941;28;1367;-75
2022/01/27 08:46:29;;;;;;;;;;;;;;;20.15;31.83;100699.22;4970126;28;1367;-77
2022/01/27 08:48:55;;;;;;;;;;;;;;;20.17;31.03;100708.16;4970208;28;1520;-77
2022/01/27 08:51:23;;;;;;;;;;;;;;;20.86;30.69;100700.66;4972015;28;888;-77
2022/01/27 08:53:50;;;;;;;;;;;;;;;20.33;30.82;100690.56;4974255;28;1570;-75
2022/01/27 08:56:16;;;;;;;;;;;;;;;20.85;30.22;100690.66;4988516;28;1633;-79
2022/01/27 08:58:43;;;;;;;;;;;;;;;22.14;28.54;100680.66;4984006;28;1906;-76
2022/01/27 09:01:09;;;;;;;;;;;;;;;20.18;31.03;100679.56;4973292;28;1636;-76
2022/01/27 09:03:35;;;;;;;;;;;;;;;21.68;28.94;100690.28;4973286;28;1007;-75
2022/01/27 09:06:01;;;;;;;;;;;;;;;21.69;28.57;100687.31;4974416;28;1058;-75
2022/01/27 09:08:29;;;;;;;;;;;;;;;20.47;29.84;100679.72;4974616;28;1339;-76
2022/01/27 09:10:55;;;;;;;;;;;;;;;19.70;31.16;100695.50;4973953;28;1335;-76
2022/01/27 09:13:22;;;;;;;;;;;;;;;18.72;32.42;100678.59;4978743;28;1368;-76
2022/01/27 09:15:49;;;;;;;;;;;;;;;20.60;29.73;100684.59;4977714;28;1582;-76
2022/01/27 09:18:16;;;;;;;;;;;;;;;20.18;30.31;100682.31;4977558;28;1915;-74
2022/01/27 09:20:43;;;;;;;;;;;;;;;20.93;29.36;100676.75;4973172;28;1232;-75
2022/01/27 09:23:13;;;;;;;;;;;;;;;20.93;29.25;100664.88;4975095;28;1233;-76
2022/01/27 09:25:43;;;;;;;;;;;;;;;19.05;31.49;100673.81;4974155;28;1029;-75
2022/01/27 09:28:10;;;;;;;;;;;;;;;19.89;30.49;100675.72;4960954;28;1870;-76
2022/01/27 09:30:37;;;;;;;;;;;;;;;20.80;29.95;100687.63;4974294;28;1380;-75
2022/01/27 09:33:03;;;;;;;;;;;;;;;19.24;31.43;100677.09;4979903;28;1493;-76
2022/01/27 09:35:31;;;;;;;;;;;;;;;20.01;30.75;100678.03;4980313;28;1506;-76
2022/01/27 09:37:57;;;;;;;;;;;;;;;20.82;30.12;100680.03;4976376;28;1976;-74
2022/01/27 09:40:24;;;;;;;;;;;;;;;20.28;30.08;100673.75;4981215;28;1684;-74
2022/01/27 09:42:53;;;;;;;;;;;;;;;19.65;31.19;100673.16;4977476;28;1550;-74
2022/01/27 09:45:20;;;;;;;;;;;;;;;20.87;29.63;100672.00;4973915;28;1023;-74
2022/01/27 09:47:54;;;;;;;;;;;;;;;19.63;31.28;100672.47;4976992;28;1293;-76
2022/01/27 09:50:27;;;;;;;;;;;;;;;20.59;31.10;100667.19;4976640;28;1475;-74
2022/01/27 09:52:53;;;;;;;;;;;;;;;19.81;32.24;100653.75;4978322;28;1083;-74
2022/01/27 09:55:20;;;;;;;;;;;;;;;20.97;31.23;100653.25;4972783;28;900;-74
2022/01/27 09:57:46;;;;;;;;;;;;;;;20.41;31.82;100643.63;4973702;28;1914;-74
2022/01/27 10:00:15;;;;;;;;;;;;;;;20.24;31.96;100645.72;4972410;28;1350;-74
2022/01/27 10:03:01;;;;;;;;;;;;;;;22.16;30.21;100650.91;4974132;28;955;-74
2022/01/27 10:05:27;;;;;;;;;;;;;;;21.24;30.61;100646.13;4972146;28;1528;-75
2022/01/27 10:08:00;;;;;;;;;;;;;;;19.84;33.05;100642.38;4973884;28;1236;-75
2022/01/27 10:10:26;;;;;;;;;;;;;;;21.28;30.83;100638.28;4972400;28;1454;-75
2022/01/27 10:12:55;;;;;;;;;;;;;;;19.26;33.63;100632.91;4972672;28;1150;-74
2022/01/27 10:15:23;;;;;;;;;;;;;;;20.20;32.53;100644.41;4955588;28;2000;-74
2022/01/27 10:18:06;;;;;;;;;;;;;;;19.97;32.58;100638.13;4974987;28;1981;-74
2022/01/27 10:20:33;;;;;;;;;;;;;;;17.90;35.13;100620.13;4972737;28;1528;-73
2022/01/27 10:23:14;;;;;;;;;;;;;;;19.93;32.90;100642.31;4973256;28;1412;-75
2022/01/27 10:25:46;;;;;;;;;;;;;;;19.62;33.34;100646.03;4965726;28;1055;-74
2022/01/27 10:28:28;;;;;;;;;;;;;;;20.06;32.39;100645.25;4973090;28;1310;-73
2022/01/27 10:31:00;;;;;;;;;;;;;;;21.15;31.57;100651.94;4974629;28;1373;-78
2022/01/27 10:33:27;;;;;;;;;;;;;;;21.02;31.25;100649.91;4974692;28;1968;-75
2022/01/27 10:35:53;;;;;;;;;;;;;;;20.83;31.93;100649.50;4973933;28;1515;-75
2022/01/27 10:38:19;;;;;;;;;;;;;;;20.09;32.51;100644.03;4973054;28;1911;-72
2022/01/27 10:40:47;;;;;;;;;;;;;;;20.04;32.93;100645.44;4973106;28;793;-74
2022/01/27 10:43:14;;;;;;;;;;;;;;;19.73;33.60;100643.66;4973379;28;800;-75
2022/01/27 10:45:57;;;;;;;;;;;;;;;18.42;35.27;100628.06;4989757;28;1555;-75
2022/01/27 10:48:28;;;;;;;;;;;;;;;19.89;32.88;100617.88;4983241;28;1551;-74
2022/01/27 10:51:03;;;;;;;;;;;;;;;20.60;32.27;100621.16;4972953;28;1216;-74
2022/01/27 10:53:51;;;;;;;;;;;;;;;19.39;34.07;100619.38;4973248;28;785;-74
2022/01/27 10:56:19;;;;;;;;;;;;;;;21.16;31.88;100601.22;4972735;28;1200;-73
2022/01/27 10:58:45;;;;;;;;;;;;;;;19.83;34.19;100604.88;4972505;28;1973;-75
2022/01/27 11:01:11;;;;;;;;;;;;;;;20.62;31.86;100605.25;4987956;28;1548;-75
2022/01/27 11:03:49;;;;;;;;;;;;;;;19.02;34.55;100591.63;4992474;28;1030;-75
2022/01/27 11:06:15;;;;;;;;;;;;;;;21.18;32.30;100599.97;4978317;28;1619;-72
2022/01/27 11:08:42;;;;;;;;;;;;;;;21.35;31.85;100591.41;4972727;28;1408;-74
2022/01/27 11:11:09;;;;;;;;;;;;;;;20.34;32.46;100589.47;4984062;28;1221;-74
2022/01/27 11:13:35;;;;;;;;;;;;;;;20.92;32.41;100580.41;4978319;28;1093;-75
2022/01/27 11:16:03;;;;;;;;;;;;;;;20.79;32.54;100593.00;4971820;28;939;-76
2022/01/27 11:18:30;;;;;;;;;;;;;;;20.92;32.72;100581.25;4972206;28;1980;-74
2022/01/27 11:21:01;;;;;;;;;;;;;;;21.42;31.54;100584.06;4974371;28;1464;-75
2022/01/27 11:26:27;;;;;;;;;;;;;;;20.62;32.42;100570.28;4957450;28;1552;-76
2022/01/27 11:28:56;;;;;;;;;;;;;;;22.24;30.73;100563.13;4966455;28;1564;-76
2022/01/27 11:31:28;;;;;;;;;;;;;;;21.43;31.66;100560.91;4972149;28;1532;-75
2022/01/27 11:33:59;;;;;;;;;;;;;;;21.06;32.86;100563.78;4972131;28;1349;-78
2022/01/27 11:36:27;;;;;;;;;;;;;;;20.60;33.30;100564.09;4970476;28;1217;-76
2022/01/27 11:38:53;;;;;;;;;;;;;;;21.76;31.63;100537.38;4972127;28;1968;-76
2022/01/27 11:41:36;;;;;;;;;;;;;;;21.75;31.22;100550.31;4970904;28;1102;-78
2022/01/27 11:44:17;;;;;;;;;;;;;;;20.79;33.40;100551.63;4968249;28;1139;-75
2022/01/27 11:47:08;;;;;;;;;;;;;;;20.15;33.73;100533.91;4968190;28;1571;-75
2022/01/27 11:49:54;;;;;;;;;;;;;;;20.71;32.71;100541.59;4971079;28;1377;-74
2022/01/27 11:52:21;;;;;;;;;;;;;;;21.53;32.19;100528.31;4972119;28;1145;-74
2022/01/27 11:54:47;;;;;;;;;;;;;;;20.02;33.95;100530.97;4976112;28;1610;-74
2022/01/27 11:57:28;;;;;;;;;;;;;;;20.69;33.42;100535.41;4973557;28;1555;-75
2022/01/27 12:00:07;;;;;;;;;;;;;;;21.31;32.91;100518.34;4971526;28;1989;-74
2022/01/27 12:02:57;;;;;;;;;;;;;;;20.06;34.37;100513.03;4972267;28;1024;-75
2022/01/27 12:05:25;;;;;;;;;;;;;;;20.94;33.07;100520.34;4972146;28;970;-74
2022/01/27 12:08:10;;;;;;;;;;;;;;;22.28;31.21;100524.88;4971872;28;1077;-77
2022/01/27 12:10:40;;;;;;;;;;;;;;;19.37;35.41;100517.75;4970076;28;1350;-75
2022/01/27 12:13:21;;;;;;;;;;;;;;;20.32;34.66;100519.91;4971773;28;915;-75
2022/01/27 12:16:06;;;;;;;;;;;;;;;20.61;33.49;100507.91;4969581;28;1472;-73
2022/01/27 12:18:36;;;;;;;;;;;;;;;21.90;31.66;100504.09;4971605;28;1928;-74
2022/01/27 12:21:28;;;;;;;;;;;;;;;20.74;33.29;100490.69;4971411;28;960;-75
2022/01/27 12:24:14;;;;;;;;;;;;;;;20.67;33.69;100486.97;4971742;28;952;-74
2022/01/27 12:26:44;;;;;;;;;;;;;;;20.95;33.01;100476.03;4970419;28;1059;-74
2022/01/27 12:29:12;;;;;;;;;;;;;;;21.18;33.22;100473.03;4974342;28;1325;-73
2022/01/27 12:31:39;;;;;;;;;;;;;;;21.98;32.17;100480.09;4975224;28;1254;-75
2022/01/27 12:34:05;;;;;;;;;;;;;;;20.81;34.23;100486.09;4977299;28;1602;-76
2022/01/27 12:36:33;;;;;;;;;;;;;;;21.96;31.69;100465.66;4980053;28;1480;-76
2022/01/27 12:38:59;;;;;;;;;;;;;;;22.20;31.45;100462.31;4978242;28;1983;-74
2022/01/27 12:41:27;;;;;;;;;;;;;;;21.98;32.31;100455.22;4974975;28;1146;-75
2022/01/27 12:43:53;;;;;;;;;;;;;;;21.59;32.75;100454.00;4989879;28;1363;-74
2022/01/27 12:46:19;;;;;;;;;;;;;;;21.62;32.72;100453.56;4978772;28;1499;-72
2022/01/27 12:48:48;;;;;;;;;;;;;;;20.98;33.14;100450.81;4975809;28;1515;-74
2022/01/27 12:51:15;;;;;;;;;;;;;;;21.26;33.30;100455.47;4994330;28;809;-76
2022/01/27 12:53:42;;;;;;;;;;;;;;;21.04;33.42;100458.25;4994925;28;1042;-75
2022/01/27 12:56:09;;;;;;;;;;;;;;;22.30;31.70;100450.03;4993222;28;998;-74
2022/01/27 12:58:36;;;;;;;;;;;;;;;21.89;31.83;100444.38;4994205;28;1981;-75
2022/01/27 13:01:02;;;;;;;;;;;;;;;21.86;32.16;100439.25;4955864;29;991;-75
2022/01/27 13:03:28;;;;;;;;;;;;;;;21.82;32.17;100432.44;4956071;29;998;-75
2022/01/27 13:05:58;;;;;;;;;;;;;;;23.37;30.25;100430.72;4954346;29;924;-74
2022/01/27 13:08:29;;;;;;;;;;;;;;;22.85;30.81;100420.34;4962546;28;1305;-75
2022/01/27 13:10:59;;;;;;;;;;;;;;;21.37;33.15;100412.66;4958263;28;1349;-75
2022/01/27 13:13:29;;;;;;;;;;;;;;;22.13;32.60;100422.78;4974927;28;951;-75
2022/01/27 13:15:56;;;;;;;;;;;;;;;22.34;31.66;100420.91;4977179;28;1589;-75
2022/01/27 13:18:27;;;;;;;;;;;;;;;22.37;31.44;100412.22;4994326;28;1373;-75
2022/01/27 13:20:57;;;;;;;;;;;;;;;21.92;32.64;100425.69;4994522;28;1983;-72